sensor_id;sensor_type;location;lat;lon;timestamp;P1;durP1;ratioP1;P2;durP2;ratioP2
58109;SDS011;58943;50.168;4.410;2023-06-22T00:00:51;4.32;;;2.33;;
58109;SDS011;58943;50.168;4.410;2023-06-22T00:03:17;2.65;;;2.10;;
58109;SDS011;58943;50.168;4.410;2023-06-22T00:05:45;2.42;;;2.10;;
58109;SDS011;58943;50.168;4.410;2023-06-22T00:08:12;3.53;;;2.08;;
58109;SDS011;58943;50.168;4.410;2023-06-22T00:10:38;2.67;;;2.30;;
58109;SDS011;58943;50.168;4.410;2023-06-22T00:13:05;3.60;;;2.10;;
58109;SDS011;58943;50.168;4.410;2023-06-22T00:15:31;3.35;;;2.33;;
58109;SDS011;58943;50.168;4.410;2023-06-22T00:17:58;2.47;;;2.05;;
58109;SDS011;58943;50.168;4.410;2023-06-22T00:20:25;3.13;;;2.55;;
58109;SDS011;58943;50.168;4.410;2023-06-22T00:22:55;3.22;;;2.22;;
58109;SDS011;58943;50.168;4.410;2023-06-22T00:25:22;2.58;;;2.13;;
58109;SDS011;58943;50.168;4.410;2023-06-22T00:27:48;2.50;;;2.00;;
58109;SDS011;58943;50.168;4.410;2023-06-22T00:30:15;3.40;;;2.67;;
58109;SDS011;58943;50.168;4.410;2023-06-22T00:32:42;3.47;;;2.20;;
58109;SDS011;58943;50.168;4.410;2023-06-22T00:35:09;2.85;;;1.92;;
58109;SDS011;58943;50.168;4.410;2023-06-22T00:37:36;2.65;;;2.10;;
58109;SDS011;58943;50.168;4.410;2023-06-22T00:40:03;1.90;;;1.80;;
58109;SDS011;58943;50.168;4.410;2023-06-22T00:42:30;2.28;;;2.05;;
58109;SDS011;58943;50.168;4.410;2023-06-22T00:44:56;2.40;;;2.20;;
58109;SDS011;58943;50.168;4.410;2023-06-22T00:47:23;2.30;;;2.03;;
58109;SDS011;58943;50.168;4.410;2023-06-22T00:49:49;2.28;;;2.08;;
58109;SDS011;58943;50.168;4.410;2023-06-22T00:52:19;2.72;;;2.30;;
58109;SDS011;58943;50.168;4.410;2023-06-22T00:54:52;2.47;;;2.10;;
58109;SDS011;58943;50.168;4.410;2023-06-22T00:57:20;3.47;;;2.40;;
58109;SDS011;58943;50.168;4.410;2023-06-22T00:59:47;4.10;;;2.35;;
58109;SDS011;58943;50.168;4.410;2023-06-22T01:02:14;2.10;;;1.85;;
58109;SDS011;58943;50.168;4.410;2023-06-22T01:04:41;2.13;;;1.92;;
58109;SDS011;58943;50.168;4.410;2023-06-22T01:09:42;3.58;;;1.95;;
58109;SDS011;58943;50.168;4.410;2023-06-22T01:12:11;3.10;;;1.90;;
58109;SDS011;58943;50.168;4.410;2023-06-22T01:14:45;2.72;;;2.08;;
58109;SDS011;58943;50.168;4.410;2023-06-22T01:17:13;2.92;;;2.17;;
58109;SDS011;58943;50.168;4.410;2023-06-22T01:19:49;2.60;;;2.10;;
58109;SDS011;58943;50.168;4.410;2023-06-22T01:22:20;2.88;;;2.08;;
58109;SDS011;58943;50.168;4.410;2023-06-22T01:27:35;2.58;;;2.20;;
58109;SDS011;58943;50.168;4.410;2023-06-22T01:30:06;1.77;;;1.67;;
58109;SDS011;58943;50.168;4.410;2023-06-22T01:32:36;2.55;;;2.00;;
58109;SDS011;58943;50.168;4.410;2023-06-22T01:35:04;2.05;;;1.90;;
58109;SDS011;58943;50.168;4.410;2023-06-22T01:37:32;3.03;;;2.20;;
58109;SDS011;58943;50.168;4.410;2023-06-22T01:39:59;2.05;;;1.95;;
58109;SDS011;58943;50.168;4.410;2023-06-22T01:42:26;4.07;;;2.15;;
58109;SDS011;58943;50.168;4.410;2023-06-22T01:44:53;2.58;;;2.03;;
58109;SDS011;58943;50.168;4.410;2023-06-22T01:47:20;2.53;;;2.15;;
58109;SDS011;58943;50.168;4.410;2023-06-22T01:49:47;2.30;;;2.08;;
58109;SDS011;58943;50.168;4.410;2023-06-22T01:52:13;2.65;;;2.20;;
58109;SDS011;58943;50.168;4.410;2023-06-22T01:54:40;2.33;;;1.90;;
58109;SDS011;58943;50.168;4.410;2023-06-22T01:57:06;3.67;;;2.13;;
58109;SDS011;58943;50.168;4.410;2023-06-22T01:59:37;2.88;;;2.20;;
58109;SDS011;58943;50.168;4.410;2023-06-22T02:02:06;2.95;;;2.15;;
58109;SDS011;58943;50.168;4.410;2023-06-22T02:04:38;2.83;;;2.20;;
58109;SDS011;58943;50.168;4.410;2023-06-22T02:07:08;1.83;;;1.73;;
58109;SDS011;58943;50.168;4.410;2023-06-22T02:09:36;2.53;;;1.90;;
58109;SDS011;58943;50.168;4.410;2023-06-22T02:12:03;2.72;;;2.13;;
58109;SDS011;58943;50.168;4.410;2023-06-22T02:14:30;2.13;;;1.98;;
58109;SDS011;58943;50.168;4.410;2023-06-22T02:16:57;2.10;;;1.90;;
58109;SDS011;58943;50.168;4.410;2023-06-22T02:19:24;3.28;;;1.98;;
58109;SDS011;58943;50.168;4.410;2023-06-22T02:21:50;2.42;;;2.17;;
58109;SDS011;58943;50.168;4.410;2023-06-22T02:24:17;1.77;;;1.67;;
58109;SDS011;58943;50.168;4.410;2023-06-22T02:26:43;3.20;;;2.00;;
58109;SDS011;58943;50.168;4.410;2023-06-22T02:29:11;2.88;;;2.10;;
58109;SDS011;58943;50.168;4.410;2023-06-22T02:31:37;2.67;;;2.05;;
58109;SDS011;58943;50.168;4.410;2023-06-22T02:34:03;2.55;;;2.00;;
58109;SDS011;58943;50.168;4.410;2023-06-22T02:36:30;3.08;;;2.10;;
58109;SDS011;58943;50.168;4.410;2023-06-22T02:38:58;3.50;;;2.20;;
58109;SDS011;58943;50.168;4.410;2023-06-22T02:41:26;2.45;;;2.25;;
58109;SDS011;58943;50.168;4.410;2023-06-22T02:43:52;2.40;;;1.80;;
58109;SDS011;58943;50.168;4.410;2023-06-22T02:46:19;2.83;;;1.90;;
58109;SDS011;58943;50.168;4.410;2023-06-22T02:48:45;2.50;;;1.92;;
58109;SDS011;58943;50.168;4.410;2023-06-22T02:51:11;2.72;;;2.17;;
58109;SDS011;58943;50.168;4.410;2023-06-22T02:53:38;2.20;;;1.90;;
58109;SDS011;58943;50.168;4.410;2023-06-22T02:56:05;2.33;;;2.10;;
58109;SDS011;58943;50.168;4.410;2023-06-22T02:58:31;3.83;;;2.10;;
58109;SDS011;58943;50.168;4.410;2023-06-22T03:01:06;2.45;;;2.08;;
58109;SDS011;58943;50.168;4.410;2023-06-22T03:03:33;1.90;;;1.70;;
58109;SDS011;58943;50.168;4.410;2023-06-22T03:05:59;2.38;;;1.65;;
58109;SDS011;58943;50.168;4.410;2023-06-22T03:08:28;1.73;;;1.60;;
58109;SDS011;58943;50.168;4.410;2023-06-22T03:10:55;3.05;;;1.95;;
58109;SDS011;58943;50.168;4.410;2023-06-22T03:13:21;2.58;;;2.00;;
58109;SDS011;58943;50.168;4.410;2023-06-22T03:15:48;2.20;;;2.00;;
58109;SDS011;58943;50.168;4.410;2023-06-22T03:18:14;2.53;;;2.00;;
58109;SDS011;58943;50.168;4.410;2023-06-22T03:20:41;1.92;;;1.73;;
58109;SDS011;58943;50.168;4.410;2023-06-22T03:23:07;2.15;;;1.95;;
58109;SDS011;58943;50.168;4.410;2023-06-22T03:25:34;3.22;;;1.98;;
58109;SDS011;58943;50.168;4.410;2023-06-22T03:28:01;2.28;;;1.83;;
58109;SDS011;58943;50.168;4.410;2023-06-22T03:30:27;2.22;;;2.03;;
58109;SDS011;58943;50.168;4.410;2023-06-22T03:32:53;2.10;;;1.90;;
58109;SDS011;58943;50.168;4.410;2023-06-22T03:35:19;2.03;;;1.73;;
58109;SDS011;58943;50.168;4.410;2023-06-22T03:37:46;2.33;;;1.80;;
58109;SDS011;58943;50.168;4.410;2023-06-22T03:40:13;2.20;;;2.00;;
58109;SDS011;58943;50.168;4.410;2023-06-22T03:42:39;2.15;;;1.95;;
58109;SDS011;58943;50.168;4.410;2023-06-22T03:45:06;4.78;;;2.10;;
58109;SDS011;58943;50.168;4.410;2023-06-22T03:47:33;2.70;;;1.90;;
58109;SDS011;58943;50.168;4.410;2023-06-22T03:49:59;2.22;;;1.63;;
58109;SDS011;58943;50.168;4.410;2023-06-22T03:52:25;2.83;;;1.85;;
58109;SDS011;58943;50.168;4.410;2023-06-22T03:54:52;1.60;;;1.50;;
58109;SDS011;58943;50.168;4.410;2023-06-22T03:57:18;2.03;;;1.83;;
58109;SDS011;58943;50.168;4.410;2023-06-22T03:59:45;1.98;;;1.80;;
58109;SDS011;58943;50.168;4.410;2023-06-22T04:02:11;2.00;;;1.80;;
58109;SDS011;58943;50.168;4.410;2023-06-22T04:04:37;2.53;;;1.60;;
58109;SDS011;58943;50.168;4.410;2023-06-22T04:07:04;2.17;;;1.90;;
58109;SDS011;58943;50.168;4.410;2023-06-22T04:09:31;2.20;;;2.00;;
58109;SDS011;58943;50.168;4.410;2023-06-22T04:11:57;2.15;;;1.83;;
58109;SDS011;58943;50.168;4.410;2023-06-22T04:14:23;3.20;;;2.20;;
58109;SDS011;58943;50.168;4.410;2023-06-22T04:16:51;2.40;;;1.80;;
58109;SDS011;58943;50.168;4.410;2023-06-22T04:19:17;3.17;;;2.00;;
58109;SDS011;58943;50.168;4.410;2023-06-22T04:21:44;2.63;;;2.10;;
58109;SDS011;58943;50.168;4.410;2023-06-22T04:24:11;2.00;;;1.80;;
58109;SDS011;58943;50.168;4.410;2023-06-22T04:26:37;3.35;;;2.10;;
58109;SDS011;58943;50.168;4.410;2023-06-22T04:29:06;1.80;;;1.70;;
58109;SDS011;58943;50.168;4.410;2023-06-22T04:31:34;2.38;;;1.70;;
58109;SDS011;58943;50.168;4.410;2023-06-22T04:34:04;2.10;;;1.83;;
58109;SDS011;58943;50.168;4.410;2023-06-22T04:36:33;2.17;;;1.97;;
58109;SDS011;58943;50.168;4.410;2023-06-22T04:39:09;3.15;;;1.95;;
58109;SDS011;58943;50.168;4.410;2023-06-22T04:41:36;3.25;;;1.98;;
58109;SDS011;58943;50.168;4.410;2023-06-22T04:44:15;2.92;;;2.00;;
58109;SDS011;58943;50.168;4.410;2023-06-22T04:47:00;2.70;;;1.90;;
58109;SDS011;58943;50.168;4.410;2023-06-22T04:49:29;2.03;;;1.83;;
58109;SDS011;58943;50.168;4.410;2023-06-22T04:52:08;2.72;;;1.90;;
58109;SDS011;58943;50.168;4.410;2023-06-22T04:54:36;2.00;;;1.83;;
58109;SDS011;58943;50.168;4.410;2023-06-22T04:57:03;2.70;;;1.95;;
58109;SDS011;58943;50.168;4.410;2023-06-22T04:59:35;2.15;;;1.90;;
58109;SDS011;58943;50.168;4.410;2023-06-22T05:02:04;2.22;;;2.03;;
58109;SDS011;58943;50.168;4.410;2023-06-22T05:04:33;1.80;;;1.70;;
58109;SDS011;58943;50.168;4.410;2023-06-22T05:07:03;3.53;;;2.35;;
58109;SDS011;58943;50.168;4.410;2023-06-22T05:09:30;2.58;;;2.00;;
58109;SDS011;58943;50.168;4.410;2023-06-22T05:11:59;2.35;;;2.10;;
58109;SDS011;58943;50.168;4.410;2023-06-22T05:14:27;2.92;;;2.13;;
58109;SDS011;58943;50.168;4.410;2023-06-22T05:16:54;1.88;;;1.55;;
58109;SDS011;58943;50.168;4.410;2023-06-22T05:19:24;2.55;;;2.20;;
58109;SDS011;58943;50.168;4.410;2023-06-22T05:21:59;1.92;;;1.73;;
58109;SDS011;58943;50.168;4.410;2023-06-22T05:24:25;3.58;;;2.20;;
58109;SDS011;58943;50.168;4.410;2023-06-22T05:26:51;3.10;;;2.10;;
58109;SDS011;58943;50.168;4.410;2023-06-22T05:29:17;3.33;;;2.00;;
58109;SDS011;58943;50.168;4.410;2023-06-22T05:31:44;2.20;;;2.00;;
58109;SDS011;58943;50.168;4.410;2023-06-22T05:34:10;3.53;;;1.90;;
58109;SDS011;58943;50.168;4.410;2023-06-22T05:36:37;2.80;;;2.22;;
58109;SDS011;58943;50.168;4.410;2023-06-22T05:39:10;3.08;;;2.55;;
58109;SDS011;58943;50.168;4.410;2023-06-22T05:41:40;3.28;;;2.15;;
58109;SDS011;58943;50.168;4.410;2023-06-22T05:44:08;2.70;;;2.27;;
58109;SDS011;58943;50.168;4.410;2023-06-22T05:46:34;2.20;;;2.00;;
58109;SDS011;58943;50.168;4.410;2023-06-22T05:49:01;2.80;;;1.95;;
58109;SDS011;58943;50.168;4.410;2023-06-22T05:51:27;2.90;;;2.55;;
58109;SDS011;58943;50.168;4.410;2023-06-22T05:53:53;4.00;;;2.50;;
58109;SDS011;58943;50.168;4.410;2023-06-22T05:56:20;3.47;;;2.15;;
58109;SDS011;58943;50.168;4.410;2023-06-22T05:58:46;2.38;;;2.15;;
58109;SDS011;58943;50.168;4.410;2023-06-22T06:01:13;2.78;;;2.03;;
58109;SDS011;58943;50.168;4.410;2023-06-22T06:03:40;3.70;;;2.38;;
58109;SDS011;58943;50.168;4.410;2023-06-22T06:06:07;3.05;;;2.20;;
58109;SDS011;58943;50.168;4.410;2023-06-22T06:08:33;3.92;;;2.40;;
58109;SDS011;58943;50.168;4.410;2023-06-22T06:11:00;3.50;;;2.42;;
58109;SDS011;58943;50.168;4.410;2023-06-22T06:13:26;3.20;;;2.42;;
58109;SDS011;58943;50.168;4.410;2023-06-22T06:15:52;4.35;;;2.50;;
58109;SDS011;58943;50.168;4.410;2023-06-22T06:18:21;2.63;;;2.42;;
58109;SDS011;58943;50.168;4.410;2023-06-22T06:20:48;2.85;;;2.25;;
58109;SDS011;58943;50.168;4.410;2023-06-22T06:23:14;2.95;;;2.38;;
58109;SDS011;58943;50.168;4.410;2023-06-22T06:25:40;2.78;;;2.33;;
58109;SDS011;58943;50.168;4.410;2023-06-22T06:28:07;3.75;;;2.50;;
58109;SDS011;58943;50.168;4.410;2023-06-22T06:30:33;4.10;;;2.75;;
58109;SDS011;58943;50.168;4.410;2023-06-22T06:33:02;2.92;;;2.55;;
58109;SDS011;58943;50.168;4.410;2023-06-22T06:35:34;4.20;;;2.72;;
58109;SDS011;58943;50.168;4.410;2023-06-22T06:38:01;3.88;;;2.53;;
58109;SDS011;58943;50.168;4.410;2023-06-22T06:40:27;3.53;;;2.50;;
58109;SDS011;58943;50.168;4.410;2023-06-22T06:42:55;3.40;;;2.50;;
58109;SDS011;58943;50.168;4.410;2023-06-22T06:45:22;4.03;;;2.80;;
58109;SDS011;58943;50.168;4.410;2023-06-22T06:47:48;3.88;;;2.78;;
58109;SDS011;58943;50.168;4.410;2023-06-22T06:50:16;4.30;;;2.90;;
58109;SDS011;58943;50.168;4.410;2023-06-22T06:52:42;3.20;;;2.75;;
58109;SDS011;58943;50.168;4.410;2023-06-22T06:55:09;3.90;;;2.63;;
58109;SDS011;58943;50.168;4.410;2023-06-22T06:57:40;5.20;;;2.50;;
58109;SDS011;58943;50.168;4.410;2023-06-22T07:00:08;3.35;;;2.63;;
58109;SDS011;58943;50.168;4.410;2023-06-22T07:02:40;4.40;;;2.70;;
58109;SDS011;58943;50.168;4.410;2023-06-22T07:05:06;4.43;;;2.88;;
58109;SDS011;58943;50.168;4.410;2023-06-22T07:07:33;4.22;;;3.00;;
58109;SDS011;58943;50.168;4.410;2023-06-22T07:09:59;3.63;;;3.30;;
58109;SDS011;58943;50.168;4.410;2023-06-22T07:12:25;4.63;;;2.85;;
58109;SDS011;58943;50.168;4.410;2023-06-22T07:14:52;4.90;;;3.30;;
58109;SDS011;58943;50.168;4.410;2023-06-22T07:17:18;3.75;;;3.05;;
58109;SDS011;58943;50.168;4.410;2023-06-22T07:19:45;3.55;;;3.05;;
58109;SDS011;58943;50.168;4.410;2023-06-22T07:22:11;5.40;;;3.53;;
58109;SDS011;58943;50.168;4.410;2023-06-22T07:24:38;5.65;;;3.45;;
58109;SDS011;58943;50.168;4.410;2023-06-22T07:27:04;4.47;;;3.22;;
58109;SDS011;58943;50.168;4.410;2023-06-22T07:29:32;6.47;;;3.88;;
58109;SDS011;58943;50.168;4.410;2023-06-22T07:31:58;4.05;;;3.03;;
58109;SDS011;58943;50.168;4.410;2023-06-22T07:34:26;3.38;;;3.08;;
58109;SDS011;58943;50.168;4.410;2023-06-22T07:36:52;3.78;;;3.28;;
58109;SDS011;58943;50.168;4.410;2023-06-22T07:39:18;3.65;;;3.17;;
58109;SDS011;58943;50.168;4.410;2023-06-22T07:41:51;5.40;;;3.40;;
58109;SDS011;58943;50.168;4.410;2023-06-22T07:44:18;3.92;;;2.70;;
58109;SDS011;58943;50.168;4.410;2023-06-22T07:46:44;5.75;;;3.58;;
58109;SDS011;58943;50.168;4.410;2023-06-22T07:49:11;6.05;;;3.40;;
58109;SDS011;58943;50.168;4.410;2023-06-22T07:51:37;4.38;;;3.05;;
58109;SDS011;58943;50.168;4.410;2023-06-22T07:54:03;3.78;;;3.30;;
58109;SDS011;58943;50.168;4.410;2023-06-22T07:56:30;5.28;;;3.30;;
58109;SDS011;58943;50.168;4.410;2023-06-22T07:58:57;6.40;;;3.67;;
58109;SDS011;58943;50.168;4.410;2023-06-22T08:01:26;3.42;;;3.05;;
58109;SDS011;58943;50.168;4.410;2023-06-22T08:03:52;4.75;;;3.15;;
58109;SDS011;58943;50.168;4.410;2023-06-22T08:06:18;4.38;;;3.30;;
58109;SDS011;58943;50.168;4.410;2023-06-22T08:08:45;4.47;;;3.60;;
58109;SDS011;58943;50.168;4.410;2023-06-22T08:11:14;5.40;;;3.22;;
58109;SDS011;58943;50.168;4.410;2023-06-22T08:13:41;5.13;;;3.25;;
58109;SDS011;58943;50.168;4.410;2023-06-22T08:16:07;3.95;;;3.08;;
58109;SDS011;58943;50.168;4.410;2023-06-22T08:18:34;3.67;;;3.05;;
58109;SDS011;58943;50.168;4.410;2023-06-22T08:21:00;4.32;;;3.03;;
58109;SDS011;58943;50.168;4.410;2023-06-22T08:23:27;3.85;;;3.30;;
58109;SDS011;58943;50.168;4.410;2023-06-22T08:25:53;3.58;;;2.75;;
58109;SDS011;58943;50.168;4.410;2023-06-22T08:28:20;4.30;;;3.22;;
58109;SDS011;58943;50.168;4.410;2023-06-22T08:30:46;4.32;;;2.85;;
58109;SDS011;58943;50.168;4.410;2023-06-22T08:33:12;6.82;;;3.50;;
58109;SDS011;58943;50.168;4.410;2023-06-22T08:35:39;5.18;;;3.50;;
58109;SDS011;58943;50.168;4.410;2023-06-22T08:38:05;4.45;;;3.00;;
58109;SDS011;58943;50.168;4.410;2023-06-22T08:40:31;4.70;;;3.00;;
58109;SDS011;58943;50.168;4.410;2023-06-22T08:42:58;3.38;;;2.97;;
58109;SDS011;58943;50.168;4.410;2023-06-22T08:45:24;6.18;;;3.20;;
58109;SDS011;58943;50.168;4.410;2023-06-22T08:47:50;3.95;;;3.08;;
58109;SDS011;58943;50.168;4.410;2023-06-22T08:50:17;4.72;;;3.28;;
58109;SDS011;58943;50.168;4.410;2023-06-22T08:52:43;5.20;;;3.40;;
58109;SDS011;58943;50.168;4.410;2023-06-22T08:55:11;6.70;;;3.58;;
58109;SDS011;58943;50.168;4.410;2023-06-22T08:57:37;4.50;;;3.00;;
58109;SDS011;58943;50.168;4.410;2023-06-22T09:00:07;5.43;;;3.55;;
58109;SDS011;58943;50.168;4.410;2023-06-22T09:02:47;6.18;;;3.40;;
58109;SDS011;58943;50.168;4.410;2023-06-22T09:05:14;4.63;;;3.25;;
58109;SDS011;58943;50.168;4.410;2023-06-22T09:07:41;4.10;;;3.55;;
58109;SDS011;58943;50.168;4.410;2023-06-22T09:10:08;4.75;;;3.50;;
58109;SDS011;58943;50.168;4.410;2023-06-22T09:12:35;4.72;;;3.28;;
58109;SDS011;58943;50.168;4.410;2023-06-22T09:15:03;4.57;;;3.40;;
58109;SDS011;58943;50.168;4.410;2023-06-22T09:17:29;4.75;;;3.10;;
58109;SDS011;58943;50.168;4.410;2023-06-22T09:19:56;4.10;;;3.20;;
58109;SDS011;58943;50.168;4.410;2023-06-22T09:22:22;4.68;;;3.20;;
58109;SDS011;58943;50.168;4.410;2023-06-22T09:24:55;4.03;;;3.38;;
58109;SDS011;58943;50.168;4.410;2023-06-22T09:27:21;6.22;;;3.13;;
58109;SDS011;58943;50.168;4.410;2023-06-22T09:29:48;5.35;;;3.42;;
58109;SDS011;58943;50.168;4.410;2023-06-22T09:32:14;4.63;;;3.30;;
58109;SDS011;58943;50.168;4.410;2023-06-22T09:34:41;3.67;;;3.15;;
58109;SDS011;58943;50.168;4.410;2023-06-22T09:37:07;3.92;;;3.35;;
58109;SDS011;58943;50.168;4.410;2023-06-22T09:39:33;4.05;;;3.15;;
58109;SDS011;58943;50.168;4.410;2023-06-22T09:42:01;4.20;;;3.00;;
58109;SDS011;58943;50.168;4.410;2023-06-22T09:44:27;3.78;;;3.10;;
58109;SDS011;58943;50.168;4.410;2023-06-22T09:46:54;5.70;;;3.05;;
58109;SDS011;58943;50.168;4.410;2023-06-22T09:49:20;4.32;;;3.17;;
58109;SDS011;58943;50.168;4.410;2023-06-22T09:51:46;4.60;;;3.30;;
58109;SDS011;58943;50.168;4.410;2023-06-22T09:54:12;4.47;;;3.55;;
58109;SDS011;58943;50.168;4.410;2023-06-22T09:56:39;5.13;;;3.58;;
58109;SDS011;58943;50.168;4.410;2023-06-22T09:59:05;4.65;;;3.63;;
58109;SDS011;58943;50.168;4.410;2023-06-22T10:01:32;3.80;;;3.40;;
58109;SDS011;58943;50.168;4.410;2023-06-22T10:03:58;4.70;;;3.55;;
58109;SDS011;58943;50.168;4.410;2023-06-22T10:06:24;5.30;;;3.80;;
58109;SDS011;58943;50.168;4.410;2023-06-22T10:08:51;5.38;;;3.50;;
58109;SDS011;58943;50.168;4.410;2023-06-22T10:11:17;4.97;;;3.40;;
58109;SDS011;58943;50.168;4.410;2023-06-22T10:13:44;6.15;;;3.70;;
58109;SDS011;58943;50.168;4.410;2023-06-22T10:16:10;6.07;;;4.07;;
58109;SDS011;58943;50.168;4.410;2023-06-22T10:18:37;4.55;;;3.85;;
58109;SDS011;58943;50.168;4.410;2023-06-22T10:21:03;5.45;;;3.55;;
58109;SDS011;58943;50.168;4.410;2023-06-22T10:23:29;7.00;;;3.97;;
58109;SDS011;58943;50.168;4.410;2023-06-22T10:25:55;4.38;;;3.38;;
58109;SDS011;58943;50.168;4.410;2023-06-22T10:28:23;6.07;;;3.97;;
58109;SDS011;58943;50.168;4.410;2023-06-22T10:30:49;4.80;;;3.20;;
58109;SDS011;58943;50.168;4.410;2023-06-22T10:33:16;4.65;;;3.60;;
58109;SDS011;58943;50.168;4.410;2023-06-22T10:35:42;5.65;;;3.60;;
58109;SDS011;58943;50.168;4.410;2023-06-22T10:38:09;5.68;;;3.63;;
58109;SDS011;58943;50.168;4.410;2023-06-22T10:40:35;5.32;;;3.70;;
58109;SDS011;58943;50.168;4.410;2023-06-22T10:43:01;4.72;;;3.67;;
58109;SDS011;58943;50.168;4.410;2023-06-22T10:45:28;4.60;;;3.80;;
58109;SDS011;58943;50.168;4.410;2023-06-22T10:47:54;5.68;;;3.55;;
58109;SDS011;58943;50.168;4.410;2023-06-22T10:50:21;4.15;;;3.75;;
58109;SDS011;58943;50.168;4.410;2023-06-22T10:52:49;5.05;;;3.53;;
58109;SDS011;58943;50.168;4.410;2023-06-22T10:55:15;4.43;;;3.40;;
58109;SDS011;58943;50.168;4.410;2023-06-22T10:57:41;4.15;;;3.30;;
58109;SDS011;58943;50.168;4.410;2023-06-22T11:00:09;4.80;;;3.80;;
58109;SDS011;58943;50.168;4.410;2023-06-22T11:02:36;7.25;;;3.88;;
58109;SDS011;58943;50.168;4.410;2023-06-22T11:05:03;5.82;;;3.80;;
58109;SDS011;58943;50.168;4.410;2023-06-22T11:07:29;6.20;;;3.65;;
58109;SDS011;58943;50.168;4.410;2023-06-22T11:09:56;4.18;;;3.58;;
58109;SDS011;58943;50.168;4.410;2023-06-22T11:12:22;4.03;;;3.58;;
58109;SDS011;58943;50.168;4.410;2023-06-22T11:14:49;4.55;;;3.63;;
58109;SDS011;58943;50.168;4.410;2023-06-22T11:17:18;6.05;;;3.95;;
58109;SDS011;58943;50.168;4.410;2023-06-22T11:19:44;5.13;;;3.58;;
58109;SDS011;58943;50.168;4.410;2023-06-22T11:22:11;5.07;;;3.50;;
58109;SDS011;58943;50.168;4.410;2023-06-22T11:24:37;5.03;;;4.32;;
58109;SDS011;58943;50.168;4.410;2023-06-22T11:27:04;5.38;;;4.55;;
58109;SDS011;58943;50.168;4.410;2023-06-22T11:29:30;5.47;;;4.32;;
58109;SDS011;58943;50.168;4.410;2023-06-22T11:31:56;6.15;;;5.32;;
58109;SDS011;58943;50.168;4.410;2023-06-22T11:34:22;5.93;;;4.97;;
58109;SDS011;58943;50.168;4.410;2023-06-22T11:36:49;5.13;;;4.10;;
58109;SDS011;58943;50.168;4.410;2023-06-22T11:39:16;7.07;;;4.47;;
58109;SDS011;58943;50.168;4.410;2023-06-22T11:41:42;8.10;;;5.63;;
58109;SDS011;58943;50.168;4.410;2023-06-22T11:44:09;6.90;;;5.13;;
58109;SDS011;58943;50.168;4.410;2023-06-22T11:46:35;8.88;;;6.47;;
58109;SDS011;58943;50.168;4.410;2023-06-22T11:49:01;7.53;;;5.47;;
58109;SDS011;58943;50.168;4.410;2023-06-22T11:51:27;4.95;;;4.45;;
58109;SDS011;58943;50.168;4.410;2023-06-22T11:53:56;6.30;;;5.47;;
58109;SDS011;58943;50.168;4.410;2023-06-22T11:56:24;7.75;;;5.78;;
58109;SDS011;58943;50.168;4.410;2023-06-22T11:58:50;8.63;;;6.10;;
58109;SDS011;58943;50.168;4.410;2023-06-22T12:01:17;7.88;;;5.38;;
58109;SDS011;58943;50.168;4.410;2023-06-22T12:03:43;7.97;;;6.00;;
58109;SDS011;58943;50.168;4.410;2023-06-22T12:06:09;6.70;;;5.10;;
58109;SDS011;58943;50.168;4.410;2023-06-22T12:08:36;7.15;;;5.65;;
58109;SDS011;58943;50.168;4.410;2023-06-22T12:11:03;5.60;;;5.00;;
58109;SDS011;58943;50.168;4.410;2023-06-22T12:13:29;6.85;;;5.20;;
58109;SDS011;58943;50.168;4.410;2023-06-22T12:15:56;6.35;;;5.03;;
58109;SDS011;58943;50.168;4.410;2023-06-22T12:18:22;7.38;;;5.40;;
58109;SDS011;58943;50.168;4.410;2023-06-22T12:20:48;6.72;;;4.68;;
58109;SDS011;58943;50.168;4.410;2023-06-22T12:23:15;5.47;;;4.32;;
58109;SDS011;58943;50.168;4.410;2023-06-22T12:25:41;6.22;;;4.35;;
58109;SDS011;58943;50.168;4.410;2023-06-22T12:28:07;7.68;;;5.32;;
58109;SDS011;58943;50.168;4.410;2023-06-22T12:30:34;7.20;;;5.05;;
58109;SDS011;58943;50.168;4.410;2023-06-22T12:33:00;6.13;;;4.85;;
58109;SDS011;58943;50.168;4.410;2023-06-22T12:35:26;5.68;;;3.83;;
58109;SDS011;58943;50.168;4.410;2023-06-22T12:37:53;4.63;;;3.75;;
58109;SDS011;58943;50.168;4.410;2023-06-22T12:40:19;4.80;;;4.20;;
58109;SDS011;58943;50.168;4.410;2023-06-22T12:42:46;5.18;;;4.18;;
58109;SDS011;58943;50.168;4.410;2023-06-22T12:45:12;5.65;;;4.32;;
58109;SDS011;58943;50.168;4.410;2023-06-22T12:47:39;6.20;;;4.57;;
58109;SDS011;58943;50.168;4.410;2023-06-22T12:50:05;5.03;;;3.75;;
58109;SDS011;58943;50.168;4.410;2023-06-22T12:52:32;4.35;;;3.90;;
58109;SDS011;58943;50.168;4.410;2023-06-22T12:54:58;5.22;;;4.25;;
58109;SDS011;58943;50.168;4.410;2023-06-22T12:57:25;4.88;;;4.18;;
58109;SDS011;58943;50.168;4.410;2023-06-22T12:59:51;6.47;;;4.20;;
58109;SDS011;58943;50.168;4.410;2023-06-22T13:02:17;5.32;;;3.95;;
58109;SDS011;58943;50.168;4.410;2023-06-22T13:04:44;4.72;;;3.67;;
58109;SDS011;58943;50.168;4.410;2023-06-22T13:07:10;4.85;;;4.25;;
58109;SDS011;58943;50.168;4.410;2023-06-22T13:09:36;6.70;;;4.60;;
58109;SDS011;58943;50.168;4.410;2023-06-22T13:12:03;4.70;;;4.18;;
58109;SDS011;58943;50.168;4.410;2023-06-22T13:14:29;4.07;;;3.30;;
58109;SDS011;58943;50.168;4.410;2023-06-22T13:16:55;4.10;;;3.70;;
58109;SDS011;58943;50.168;4.410;2023-06-22T13:19:22;4.90;;;4.40;;
58109;SDS011;58943;50.168;4.410;2023-06-22T13:21:48;4.75;;;3.78;;
58109;SDS011;58943;50.168;4.410;2023-06-22T13:24:14;4.75;;;3.70;;
58109;SDS011;58943;50.168;4.410;2023-06-22T13:26:41;4.75;;;3.90;;
58109;SDS011;58943;50.168;4.410;2023-06-22T13:29:08;4.47;;;3.97;;
58109;SDS011;58943;50.168;4.410;2023-06-22T13:31:34;3.88;;;3.42;;
58109;SDS011;58943;50.168;4.410;2023-06-22T13:34:00;3.80;;;3.28;;
58109;SDS011;58943;50.168;4.410;2023-06-22T13:36:27;5.57;;;3.90;;
58109;SDS011;58943;50.168;4.410;2023-06-22T13:41:22;4.55;;;3.72;;
58109;SDS011;58943;50.168;4.410;2023-06-22T13:43:48;4.72;;;3.70;;
58109;SDS011;58943;50.168;4.410;2023-06-22T13:46:14;4.43;;;3.78;;
58109;SDS011;58943;50.168;4.410;2023-06-22T13:48:40;4.82;;;3.78;;
58109;SDS011;58943;50.168;4.410;2023-06-22T13:51:07;3.70;;;3.40;;
58109;SDS011;58943;50.168;4.410;2023-06-22T13:53:33;4.20;;;3.50;;
58109;SDS011;58943;50.168;4.410;2023-06-22T13:55:59;6.53;;;3.97;;
58109;SDS011;58943;50.168;4.410;2023-06-22T13:58:26;5.13;;;3.80;;
58109;SDS011;58943;50.168;4.410;2023-06-22T14:00:52;3.30;;;3.00;;
58109;SDS011;58943;50.168;4.410;2023-06-22T14:03:18;3.85;;;3.47;;
58109;SDS011;58943;50.168;4.410;2023-06-22T14:05:45;3.97;;;3.42;;
58109;SDS011;58943;50.168;4.410;2023-06-22T14:08:12;3.55;;;3.15;;
58109;SDS011;58943;50.168;4.410;2023-06-22T14:10:38;3.92;;;3.35;;
58109;SDS011;58943;50.168;4.410;2023-06-22T14:13:04;5.55;;;3.25;;
58109;SDS011;58943;50.168;4.410;2023-06-22T14:15:31;4.00;;;3.60;;
58109;SDS011;58943;50.168;4.410;2023-06-22T14:17:57;4.00;;;3.10;;
58109;SDS011;58943;50.168;4.410;2023-06-22T14:20:23;3.92;;;3.50;;
58109;SDS011;58943;50.168;4.410;2023-06-22T14:22:50;4.35;;;3.33;;
58109;SDS011;58943;50.168;4.410;2023-06-22T14:25:16;4.43;;;2.95;;
58109;SDS011;58943;50.168;4.410;2023-06-22T14:27:42;3.53;;;3.22;;
58109;SDS011;58943;50.168;4.410;2023-06-22T14:30:09;4.47;;;2.90;;
58109;SDS011;58943;50.168;4.410;2023-06-22T14:32:36;5.13;;;3.40;;
58109;SDS011;58943;50.168;4.410;2023-06-22T14:35:02;4.35;;;3.35;;
58109;SDS011;58943;50.168;4.410;2023-06-22T14:37:29;3.45;;;3.08;;
58109;SDS011;58943;50.168;4.410;2023-06-22T14:39:55;4.38;;;3.28;;
58109;SDS011;58943;50.168;4.410;2023-06-22T14:42:22;4.22;;;3.20;;
58109;SDS011;58943;50.168;4.410;2023-06-22T14:44:51;3.38;;;2.90;;
58109;SDS011;58943;50.168;4.410;2023-06-22T14:47:18;4.18;;;3.50;;
58109;SDS011;58943;50.168;4.410;2023-06-22T14:49:44;3.10;;;2.85;;
58109;SDS011;58943;50.168;4.410;2023-06-22T14:52:10;4.45;;;3.13;;
58109;SDS011;58943;50.168;4.410;2023-06-22T14:54:37;3.70;;;2.95;;